Time;durP1;ratioP1;P1;durP2;ratioP2;P2;SDS_P1;SDS_P2;PMS_P1;PMS_P2;Temp;Humidity;BMP_temperature;BMP_pressure;BME280_temperature;BME280_humidity;BME280_pressure;Samples;Min_cycle;Max_cycle;Signal;HPM_P1;HPM_P2
2023/05/31 00:02:20;;;;;;;4.90;2.92;;;11.20;99.90;;;;;;6189516;23;20013;-62
2023/05/31 00:04:48;;;;;;;3.67;2.80;;;11.20;99.90;;;;;;6187628;23;20048;-62
2023/05/31 00:07:14;;;;;;;4.90;2.90;;;11.20;99.90;;;;;;6189837;23;20091;-62
2023/05/31 00:09:40;;;;;;;5.82;2.97;;;11.20;99.90;;;;;;6188385;23;20807;-62
2023/05/31 00:12:06;;;;;;;6.22;3.40;;;11.10;99.90;;;;;;6187936;23;20017;-62
2023/05/31 00:14:32;;;;;;;4.50;2.83;;;11.10;99.90;;;;;;6189065;23;20029;-62
2023/05/31 00:17:00;;;;;;;7.55;3.08;;;11.10;99.90;;;;;;6188241;23;20024;-62
2023/05/31 00:19:25;;;;;;;5.55;2.90;;;11.00;99.90;;;;;;6171422;23;20017;-62
2023/05/31 00:21:51;;;;;;;7.47;2.63;;;11.10;99.90;;;;;;6194437;23;20028;-62
2023/05/31 00:24:20;;;;;;;5.13;2.95;;;11.00;99.90;;;;;;6188340;23;20025;-62
2023/05/31 00:26:46;;;;;;;5.22;2.95;;;11.00;99.90;;;;;;6187512;23;20028;-62
2023/05/31 00:29:12;;;;;;;5.10;3.03;;;10.90;99.90;;;;;;6187592;23;20071;-62
2023/05/31 00:31:37;;;;;;;3.45;2.92;;;10.90;99.90;;;;;;6188658;23;20021;-62
2023/05/31 00:34:03;;;;;;;7.07;3.03;;;10.90;99.90;;;;;;6186475;23;20041;-62
2023/05/31 00:36:30;;;;;;;8.43;3.30;;;10.90;99.90;;;;;;6188533;23;20017;-63
2023/05/31 00:38:56;;;;;;;5.90;3.35;;;10.90;99.90;;;;;;6186104;23;20024;-62
2023/05/31 00:41:22;;;;;;;6.90;3.28;;;10.90;99.90;;;;;;6188533;23;20021;-62
2023/05/31 00:43:48;;;;;;;6.43;3.42;;;10.90;99.90;;;;;;6186848;23;20455;-62
2023/05/31 00:46:36;;;;;;;8.60;3.33;;;10.90;99.90;;;;;;6187789;23;20056;-62
2023/05/31 00:49:02;;;;;;;5.85;4.20;;;10.90;99.90;;;;;;6188558;23;20029;-62
2023/05/31 00:51:31;;;;;;;7.30;3.70;;;10.90;99.90;;;;;;6186494;23;20021;-62
2023/05/31 00:53:58;;;;;;;8.45;3.70;;;10.90;99.90;;;;;;6188733;23;20043;-62
2023/05/31 00:56:24;;;;;;;8.57;3.80;;;10.90;99.90;;;;;;6186395;23;20024;-62
2023/05/31 00:58:55;;;;;;;8.18;3.80;;;10.90;99.90;;;;;;6188527;23;20021;-62
2023/05/31 01:01:25;;;;;;;6.20;3.75;;;10.80;99.90;;;;;;6188130;23;20021;-62
2023/05/31 01:03:52;;;;;;;8.52;4.18;;;10.90;99.90;;;;;;6187226;23;20036;-62
2023/05/31 01:06:18;;;;;;;7.00;3.83;;;10.90;99.90;;;;;;6188712;23;20021;-62
2023/05/31 01:08:44;;;;;;;5.85;3.90;;;10.80;99.90;;;;;;6185865;23;20028;-62
2023/05/31 01:11:33;;;;;;;9.13;3.83;;;10.80;99.90;;;;;;6189467;23;20434;-62
2023/05/31 01:14:42;;;;;;;6.30;4.13;;;10.80;99.90;;;;;;6188678;23;20039;-62
2023/05/31 01:17:22;;;;;;;5.97;4.00;;;10.80;99.90;;;;;;6186244;23;20021;-62
2023/05/31 01:19:56;;;;;;;7.60;4.15;;;10.80;99.90;;;;;;6188582;23;20025;-62
2023/05/31 01:22:59;;;;;;;6.28;3.85;;;10.70;99.90;;;;;;6186663;23;20849;-62
2023/05/31 01:25:31;;;;;;;;;;;10.70;99.90;;;;;;6186885;23;20056;-62
2023/05/31 01:27:58;;;;;;;7.45;4.63;;;10.70;99.90;;;;;;6188846;23;19923;-62
2023/05/31 01:30:26;;;;;;;10.27;3.58;;;10.70;99.90;;;;;;6187247;23;20017;-62
2023/05/31 01:32:55;;;;;;;8.80;3.83;;;10.70;99.90;;;;;;6190266;23;20950;-63
2023/05/31 01:35:21;;;;;;;7.20;4.35;;;10.70;99.90;;;;;;6188640;23;20077;-62
2023/05/31 01:37:47;;;;;;;6.68;3.97;;;10.70;99.90;;;;;;6188906;23;20028;-62
2023/05/31 01:40:15;;;;;;;8.25;4.20;;;10.70;99.90;;;;;;6189847;23;20132;-62
2023/05/31 01:42:43;;;;;;;7.43;3.97;;;10.60;99.90;;;;;;6188179;23;20107;-62
2023/05/31 01:45:10;;;;;;;5.85;3.90;;;10.70;99.90;;;;;;6190559;23;20032;-62
2023/05/31 01:47:40;;;;;;;9.90;4.82;;;10.60;99.90;;;;;;6188272;23;20065;-62
2023/05/31 01:50:07;;;;;;;7.80;4.40;;;10.60;99.90;;;;;;6190019;23;20020;-62
2023/05/31 01:52:35;;;;;;;10.43;4.78;;;10.60;99.90;;;;;;6188774;23;20021;-62
2023/05/31 01:55:02;;;;;;;8.05;4.32;;;10.60;99.90;;;;;;6189000;23;20021;-61
2023/05/31 01:57:31;;;;;;;12.48;4.15;;;10.60;99.90;;;;;;6190415;23;20075;-62
2023/05/31 02:00:00;;;;;;;7.03;4.07;;;10.60;99.90;;;;;;6188027;23;20013;-62
2023/05/31 02:02:28;;;;;;;8.05;4.13;;;10.60;99.90;;;;;;6190158;23;20028;-64
2023/05/31 02:05:11;;;;;;;13.68;4.60;;;10.60;99.90;;;;;;6187871;23;20443;-62
2023/05/31 02:07:37;;;;;;;8.35;4.82;;;10.60;99.90;;;;;;6188897;23;20021;-62
2023/05/31 02:10:04;;;;;;;9.98;5.28;;;10.50;99.90;;;;;;6189626;23;20027;-61
2023/05/31 02:12:30;;;;;;;10.57;4.30;;;10.50;99.90;;;;;;6188060;23;20100;-62
2023/05/31 02:14:55;;;;;;;8.93;4.93;;;10.50;99.90;;;;;;6189935;23;20295;-62
2023/05/31 02:17:24;;;;;;;7.90;4.53;;;10.50;99.90;;;;;;6187614;23;20021;-63
2023/05/31 02:19:54;;;;;;;7.15;4.60;;;10.50;99.90;;;;;;6189612;23;20021;-62
2023/05/31 02:22:20;;;;;;;10.25;4.53;;;10.50;99.90;;;;;;6189101;23;20409;-62
2023/05/31 02:24:47;;;;;;;10.18;4.60;;;10.50;99.90;;;;;;6195132;23;20021;-62
2023/05/31 02:27:13;;;;;;;8.43;4.15;;;10.50;99.90;;;;;;6200927;23;20051;-62
2023/05/31 02:29:39;;;;;;;9.32;4.40;;;10.50;99.90;;;;;;6197148;23;20019;-62
2023/05/31 02:32:05;;;;;;;7.63;4.50;;;10.40;99.90;;;;;;6199182;23;20021;-62
2023/05/31 02:34:31;;;;;;;9.15;4.55;;;10.50;99.90;;;;;;6191130;23;20021;-63
2023/05/31 02:36:57;;;;;;;10.85;5.35;;;10.50;99.90;;;;;;6191796;23;20033;-62
2023/05/31 02:39:25;;;;;;;9.25;4.07;;;10.40;99.90;;;;;;6188470;23;20021;-63
2023/05/31 02:41:51;;;;;;;9.95;4.40;;;10.40;99.90;;;;;;6188424;23;20021;-62
2023/05/31 02:44:17;;;;;;;7.70;4.15;;;10.40;99.90;;;;;;6188977;23;20025;-62
2023/05/31 02:46:43;;;;;;;13.95;4.55;;;10.30;99.90;;;;;;6187803;23;20017;-62
2023/05/31 02:49:09;;;;;;;9.45;5.05;;;10.30;99.90;;;;;;6189572;23;20036;-62
2023/05/31 02:51:35;;;;;;;9.95;4.30;;;10.30;99.90;;;;;;6187315;23;20021;-62
2023/05/31 02:54:01;;;;;;;9.43;4.55;;;10.30;99.90;;;;;;6189660;23;20068;-61
2023/05/31 02:56:26;;;;;;;8.95;4.55;;;10.30;99.90;;;;;;6187569;23;20029;-62
2023/05/31 02:58:52;;;;;;;10.27;4.65;;;10.20;99.90;;;;;;6189292;23;20035;-62
2023/05/31 03:01:18;;;;;;;11.80;5.28;;;10.20;99.90;;;;;;6188525;23;20021;-61
2023/05/31 03:03:44;;;;;;;10.80;4.53;;;10.20;99.90;;;;;;6187925;23;20021;-62
2023/05/31 03:06:11;;;;;;;8.60;4.65;;;10.20;99.90;;;;;;6189685;23;20021;-62
2023/05/31 03:08:37;;;;;;;10.15;5.25;;;10.10;99.90;;;;;;6187302;23;20024;-62
2023/05/31 03:11:03;;;;;;;11.55;4.25;;;10.10;99.90;;;;;;6189898;23;20025;-63
2023/05/31 03:13:28;;;;;;;13.27;5.53;;;10.10;99.90;;;;;;6187498;23;20022;-62
2023/05/31 03:15:54;;;;;;;9.60;4.65;;;10.10;99.90;;;;;;6189256;23;20028;-62
2023/05/31 03:18:20;;;;;;;8.18;4.28;;;10.10;99.90;;;;;;6188358;23;20051;-63
2023/05/31 03:20:46;;;;;;;9.30;4.68;;;10.10;99.90;;;;;;6188349;23;20021;-62
2023/05/31 03:23:11;;;;;;;12.48;5.32;;;10.10;99.90;;;;;;6189434;23;20914;-62
2023/05/31 03:25:37;;;;;;;8.27;4.60;;;10.10;99.90;;;;;;6186884;23;20021;-62
2023/05/31 03:28:03;;;;;;;10.07;4.85;;;10.00;99.90;;;;;;6163113;23;20052;-62
2023/05/31 03:30:29;;;;;;;8.23;4.60;;;10.00;99.90;;;;;;6160554;23;20044;-62
2023/05/31 03:32:55;;;;;;;12.10;4.93;;;10.00;99.90;;;;;;6188830;23;20025;-62
2023/05/31 03:35:21;;;;;;;7.60;4.00;;;9.90;99.90;;;;;;6188046;23;20079;-62
2023/05/31 03:37:47;;;;;;;7.05;4.05;;;10.00;99.90;;;;;;6188261;23;20055;-62
2023/05/31 03:40:12;;;;;;;10.77;4.40;;;10.00;99.90;;;;;;6189528;23;20456;-62
2023/05/31 03:42:38;;;;;;;8.85;4.55;;;10.00;99.90;;;;;;6187177;23;20025;-61
2023/05/31 03:45:04;;;;;;;10.73;4.85;;;10.00;99.90;;;;;;6189380;23;20017;-63
2023/05/31 03:47:30;;;;;;;8.70;5.22;;;10.10;99.90;;;;;;6186699;23;20021;-62
2023/05/31 03:49:56;;;;;;;8.77;4.65;;;10.10;99.90;;;;;;6188817;23;20021;-63
2023/05/31 03:52:21;;;;;;;9.55;5.22;;;10.10;99.90;;;;;;6187695;23;20025;-62
2023/05/31 03:54:47;;;;;;;11.25;5.00;;;10.10;99.90;;;;;;6188213;23;20075;-62
2023/05/31 03:57:13;;;;;;;10.77;4.38;;;10.00;99.90;;;;;;6188422;23;20517;-62
2023/05/31 03:59:39;;;;;;;10.55;5.07;;;10.10;99.90;;;;;;6186717;23;20013;-62
2023/05/31 04:02:05;;;;;;;8.57;4.97;;;10.10;99.90;;;;;;6188431;23;20017;-63
2023/05/31 04:04:31;;;;;;;11.25;5.25;;;10.20;99.90;;;;;;6161166;23;20021;-62
2023/05/31 04:06:56;;;;;;;15.73;5.38;;;10.30;99.90;;;;;;6189573;23;20568;-62
2023/05/31 04:09:23;;;;;;;10.65;4.82;;;10.40;99.90;;;;;;6188945;23;20021;-62
2023/05/31 04:11:49;;;;;;;11.50;5.70;;;10.40;99.90;;;;;;6189979;23;20017;-62
2023/05/31 04:14:15;;;;;;;10.73;4.90;;;10.40;99.90;;;;;;6188829;23;20021;-62
2023/05/31 04:16:41;;;;;;;11.80;5.22;;;10.40;99.90;;;;;;6187058;23;20052;-62
2023/05/31 04:19:08;;;;;;;11.10;5.25;;;10.60;99.90;;;;;;6188932;23;20036;-62
2023/05/31 04:21:33;;;;;;;13.75;5.35;;;10.60;99.90;;;;;;6186924;23;20017;-63
2023/05/31 04:23:59;;;;;;;10.75;4.95;;;10.70;99.90;;;;;;6188701;23;20017;-63
2023/05/31 04:26:25;;;;;;;11.55;5.43;;;10.80;99.90;;;;;;6187055;23;20020;-62
2023/05/31 04:28:54;;;;;;;13.50;5.50;;;10.80;99.90;;;;;;6188560;23;20021;-62
2023/05/31 04:31:28;;;;;;;11.43;5.60;;;10.90;99.90;;;;;;6187871;23;20093;-62
2023/05/31 04:33:56;;;;;;;11.70;5.78;;;10.90;99.90;;;;;;6187391;23;20009;-63
2023/05/31 04:36:24;;;;;;;13.82;5.72;;;11.00;99.90;;;;;;6188960;23;20033;-62
2023/05/31 04:38:51;;;;;;;13.82;6.20;;;11.00;99.90;;;;;;6187024;23;20013;-62
2023/05/31 04:41:17;;;;;;;11.27;5.57;;;11.20;99.90;;;;;;6189091;23;20056;-62
2023/05/31 04:43:43;;;;;;;10.63;5.80;;;11.20;99.90;;;;;;6187366;23;20035;-63
2023/05/31 04:46:12;;;;;;;9.75;5.22;;;11.40;99.90;;;;;;6187914;23;20455;-62
2023/05/31 04:48:38;;;;;;;11.93;5.15;;;11.60;99.90;;;;;;6188685;23;20025;-62
2023/05/31 04:51:04;;;;;;;11.63;5.78;;;11.60;99.90;;;;;;6160685;23;20017;-63
2023/05/31 04:53:30;;;;;;;11.25;5.88;;;11.70;99.90;;;;;;6189007;23;20052;-62
2023/05/31 04:55:55;;;;;;;10.60;4.93;;;11.80;99.90;;;;;;6186476;23;20025;-62
2023/05/31 04:58:21;;;;;;;15.60;5.40;;;11.90;99.90;;;;;;6188953;23;20021;-63
2023/05/31 05:00:48;;;;;;;12.65;5.65;;;12.10;99.90;;;;;;6187176;23;20052;-62
2023/05/31 05:03:14;;;;;;;11.90;5.68;;;12.20;99.90;;;;;;6163216;23;20057;-63
2023/05/31 05:05:40;;;;;;;10.95;6.45;;;12.30;99.90;;;;;;6191177;23;20017;-64
2023/05/31 05:08:09;;;;;;;11.73;5.88;;;12.30;99.90;;;;;;6189030;23;20021;-62
2023/05/31 05:10:35;;;;;;;11.05;5.40;;;12.50;99.90;;;;;;6164455;23;20013;-63
2023/05/31 05:13:00;;;;;;;11.43;5.05;;;12.60;99.90;;;;;;6194793;23;20028;-63
2023/05/31 05:15:26;;;;;;;9.35;5.75;;;12.70;99.90;;;;;;6195565;23;20013;-62
2023/05/31 05:17:52;;;;;;;12.27;5.72;;;12.80;99.90;;;;;;6192412;23;20031;-62
2023/05/31 05:20:19;;;;;;;8.00;5.18;;;12.90;99.90;;;;;;6197256;23;20612;-63
2023/05/31 05:22:51;;;;;;;10.23;5.70;;;13.00;99.90;;;;;;6196505;23;20032;-62
2023/05/31 05:25:16;;;;;;;14.15;5.22;;;13.00;99.90;;;;;;6174877;23;20017;-62
2023/05/31 05:27:45;;;;;;;16.38;6.85;;;13.10;99.90;;;;;;6201612;23;20029;-62
2023/05/31 05:30:12;;;;;;;13.45;5.80;;;13.10;99.90;;;;;;6197503;23;20032;-63
2023/05/31 05:32:37;;;;;;;10.00;5.30;;;13.20;99.90;;;;;;6199468;23;20025;-63
2023/05/31 05:35:03;;;;;;;12.25;5.93;;;13.30;99.90;;;;;;6192276;23;20021;-64
2023/05/31 05:37:31;;;;;;;12.05;5.32;;;13.40;99.90;;;;;;6191916;23;20059;-62
2023/05/31 05:39:59;;;;;;;12.00;5.97;;;13.50;99.90;;;;;;6190343;23;20021;-63
2023/05/31 05:42:25;;;;;;;11.50;5.55;;;13.40;99.90;;;;;;6188713;23;20024;-62
2023/05/31 05:44:51;;;;;;;13.90;6.18;;;13.60;99.90;;;;;;6190547;23;20143;-62
2023/05/31 05:47:17;;;;;;;13.40;5.68;;;13.70;99.90;;;;;;6187966;23;20021;-62
2023/05/31 05:49:42;;;;;;;13.00;5.05;;;13.80;99.90;;;;;;6190595;23;20028;-63
2023/05/31 05:52:08;;;;;;;14.50;7.15;;;13.90;99.90;;;;;;6188302;23;20470;-63
2023/05/31 05:54:34;;;;;;;10.35;5.47;;;13.80;99.90;;;;;;6189804;23;20032;-62
2023/05/31 05:56:59;;;;;;;11.40;5.70;;;13.90;99.90;;;;;;6189393;23;20025;-62
2023/05/31 05:59:25;;;;;;;10.85;6.07;;;14.00;99.90;;;;;;6188648;23;20423;-63
2023/05/31 06:01:51;;;;;;;8.13;5.00;;;14.10;99.90;;;;;;6190247;23;20024;-62
2023/05/31 06:04:17;;;;;;;11.93;5.28;;;14.10;99.90;;;;;;6187822;23;20024;-63
2023/05/31 06:06:43;;;;;;;13.15;5.55;;;14.10;99.90;;;;;;6163378;23;20138;-63
2023/05/31 06:09:08;;;;;;;16.02;6.40;;;14.10;99.90;;;;;;6187928;23;20024;-63
2023/05/31 06:11:34;;;;;;;12.77;6.40;;;14.20;99.90;;;;;;6189578;23;20025;-62
2023/05/31 06:14:00;;;;;;;11.88;4.90;;;14.30;99.90;;;;;;6188385;23;20035;-62
2023/05/31 06:16:26;;;;;;;11.32;5.10;;;14.30;99.90;;;;;;6187945;23;20021;-63
2023/05/31 06:18:53;;;;;;;15.55;6.13;;;14.30;99.90;;;;;;6189940;23;20445;-62
2023/05/31 06:21:18;;;;;;;12.82;5.47;;;14.40;99.90;;;;;;6187535;23;20043;-62
2023/05/31 06:23:44;;;;;;;14.35;6.03;;;14.50;99.90;;;;;;6190038;23;20064;-63
2023/05/31 06:26:11;;;;;;;13.50;5.32;;;14.50;99.90;;;;;;6187243;23;20036;-62
2023/05/31 06:28:36;;;;;;;12.00;5.30;;;14.60;99.90;;;;;;6189323;23;20018;-62
2023/05/31 06:31:02;;;;;;;10.15;5.15;;;14.70;99.90;;;;;;6188307;23;20024;-62
2023/05/31 06:33:28;;;;;;;8.70;5.00;;;14.70;99.90;;;;;;6188605;23;20017;-62
2023/05/31 06:35:54;;;;;;;10.07;5.20;;;14.80;99.90;;;;;;6189165;23;20462;-62
2023/05/31 06:38:21;;;;;;;9.95;5.05;;;14.90;99.90;;;;;;6187361;23;20024;-63
2023/05/31 06:40:47;;;;;;;10.95;5.13;;;15.00;99.90;;;;;;6189787;23;20063;-62
2023/05/31 06:43:13;;;;;;;14.20;6.10;;;15.10;99.90;;;;;;6187419;23;20021;-62
2023/05/31 06:45:41;;;;;;;11.95;4.97;;;15.10;99.90;;;;;;6189208;23;20024;-62
2023/05/31 06:48:10;;;;;;;13.68;5.18;;;15.20;99.90;;;;;;6188161;23;20025;-62
2023/05/31 06:50:36;;;;;;;11.65;5.72;;;15.20;99.90;;;;;;6188255;23;20073;-62
2023/05/31 06:53:05;;;;;;;10.40;5.80;;;15.40;99.90;;;;;;6189455;23;20025;-62
2023/05/31 06:55:31;;;;;;;13.55;5.40;;;15.40;99.90;;;;;;6187106;23;20055;-64
2023/05/31 06:57:58;;;;;;;9.68;5.03;;;15.40;99.90;;;;;;6161595;23;20056;-64
2023/05/31 07:00:24;;;;;;;13.35;6.03;;;15.50;99.90;;;;;;6186294;23;20092;-64
2023/05/31 07:02:51;;;;;;;13.02;5.43;;;15.50;99.90;;;;;;6188617;23;20028;-63
2023/05/31 07:05:16;;;;;;;10.02;5.28;;;15.60;99.90;;;;;;6187214;23;20090;-64
2023/05/31 07:07:42;;;;;;;14.25;6.15;;;15.70;99.90;;;;;;6187763;23;20025;-64
2023/05/31 07:10:08;;;;;;;10.02;5.82;;;15.70;99.90;;;;;;6188811;23;20044;-64
2023/05/31 07:12:34;;;;;;;12.48;5.32;;;15.70;99.90;;;;;;6187104;23;20017;-63
2023/05/31 07:15:00;;;;;;;12.23;6.00;;;15.90;99.90;;;;;;6189932;23;20031;-62
2023/05/31 07:17:25;;;;;;;10.38;5.50;;;16.00;99.90;;;;;;6187034;23;20021;-63
2023/05/31 07:19:51;;;;;;;13.32;5.45;;;15.90;99.90;;;;;;6189322;23;20021;-62
2023/05/31 07:22:17;;;;;;;9.73;5.18;;;16.00;99.90;;;;;;6187805;23;20068;-63
2023/05/31 07:24:43;;;;;;;9.30;5.25;;;16.10;99.90;;;;;;6188384;23;20040;-62
2023/05/31 07:27:10;;;;;;;12.10;4.40;;;16.10;99.90;;;;;;6189011;23;20021;-62
2023/05/31 07:29:36;;;;;;;13.57;5.18;;;16.40;99.90;;;;;;6187698;23;20017;-62
2023/05/31 07:32:02;;;;;;;10.27;5.07;;;16.40;99.90;;;;;;6189555;23;20028;-62
2023/05/31 07:34:27;;;;;;;8.95;4.20;;;16.40;99.90;;;;;;6186743;23;20072;-62
2023/05/31 07:36:53;;;;;;;9.00;4.70;;;16.50;99.90;;;;;;6189567;23;20593;-62
2023/05/31 07:39:22;;;;;;;15.45;4.93;;;16.50;99.90;;;;;;6187520;23;20502;-62
2023/05/31 07:41:48;;;;;;;12.55;4.57;;;16.60;99.90;;;;;;6188681;23;20021;-62
2023/05/31 07:44:16;;;;;;;9.30;4.10;;;16.60;99.90;;;;;;6188769;23;20021;-62
2023/05/31 07:46:42;;;;;;;13.55;4.63;;;16.70;99.90;;;;;;6187627;23;20021;-62
2023/05/31 07:49:08;;;;;;;9.32;4.38;;;16.70;99.90;;;;;;6189387;23;20105;-62
2023/05/31 07:51:34;;;;;;;8.82;4.97;;;16.80;99.90;;;;;;6187251;23;20044;-63
2023/05/31 07:54:00;;;;;;;9.13;5.10;;;16.90;99.90;;;;;;6189311;23;20541;-62
2023/05/31 07:56:26;;;;;;;11.95;4.55;;;16.90;99.90;;;;;;6187365;23;20064;-62
2023/05/31 07:58:51;;;;;;;11.70;4.57;;;17.00;99.90;;;;;;6189011;23;20017;-61
2023/05/31 08:01:17;;;;;;;9.60;4.22;;;17.00;99.90;;;;;;6198518;23;20044;-62
2023/05/31 08:03:43;;;;;;;9.35;4.03;;;17.00;99.90;;;;;;6199330;23;20013;-62
2023/05/31 08:06:09;;;;;;;8.07;3.95;;;17.10;99.90;;;;;;6191954;23;20037;-62
2023/05/31 08:08:35;;;;;;;10.10;4.93;;;17.30;99.90;;;;;;6187143;23;20028;-63
2023/05/31 08:11:01;;;;;;;8.50;3.65;;;17.30;99.90;;;;;;6189149;23;20021;-62
2023/05/31 08:13:29;;;;;;;9.13;3.70;;;17.40;99.90;;;;;;6187249;23;20019;-62
2023/05/31 08:15:55;;;;;;;7.75;3.63;;;17.40;99.90;;;;;;6188710;23;20028;-62
2023/05/31 08:18:22;;;;;;;6.53;4.00;;;17.50;99.90;;;;;;6188162;23;20017;-63
2023/05/31 08:20:48;;;;;;;11.13;4.20;;;17.50;99.90;;;;;;6188242;23;20024;-62
2023/05/31 08:23:20;;;;;;;9.63;3.92;;;17.60;99.90;;;;;;6172242;23;20048;-62
2023/05/31 08:25:46;;;;;;;;;;;17.70;99.90;;;;;;6198255;23;20522;-62
2023/05/31 08:28:12;;;;;;;10.05;3.88;;;17.80;99.90;;;;;;6172574;23;19916;-62
2023/05/31 08:30:38;;;;;;;8.45;3.70;;;17.80;99.90;;;;;;6196214;23;20015;-62
2023/05/31 08:33:04;;;;;;;11.18;4.10;;;17.90;99.90;;;;;;6190546;23;20197;-63
2023/05/31 08:35:30;;;;;;;9.02;3.80;;;17.90;99.90;;;;;;6188874;23;20025;-62
2023/05/31 08:37:56;;;;;;;7.95;3.25;;;18.00;99.90;;;;;;6187701;23;20029;-62
2023/05/31 08:40:23;;;;;;;7.10;3.72;;;18.10;99.90;;;;;;6190055;23;20023;-62
2023/05/31 08:43:00;;;;;;;8.85;3.25;;;18.20;99.90;;;;;;6188502;23;20025;-62
2023/05/31 08:45:29;;;;;;;8.80;3.15;;;18.10;99.90;;;;;;6190671;23;20021;-62
2023/05/31 08:48:28;;;;;;;8.63;4.15;;;18.30;99.90;;;;;;6188695;23;20060;-62
2023/05/31 08:50:57;;;;;;;6.90;3.28;;;18.40;99.90;;;;;;6166216;23;20071;-62
2023/05/31 08:53:26;;;;;;;5.53;3.20;;;18.40;99.90;;;;;;6190583;23;20164;-62
2023/05/31 08:55:53;;;;;;;10.02;3.35;;;18.50;99.90;;;;;;6188511;23;20152;-63
2023/05/31 08:58:19;;;;;;;9.40;3.03;;;18.60;99.90;;;;;;6190409;23;20056;-62
2023/05/31 09:00:46;;;;;;;7.85;3.90;;;18.60;99.90;;;;;;6188960;23;20021;-62
2023/05/31 09:03:12;;;;;;;7.03;3.17;;;18.60;99.90;;;;;;6189900;23;20032;-62
2023/05/31 09:05:38;;;;;;;5.18;3.00;;;18.70;99.90;;;;;;6190006;23;20343;-62
2023/05/31 09:08:06;;;;;;;8.27;3.08;;;18.70;99.90;;;;;;6188557;23;20017;-62
2023/05/31 09:10:32;;;;;;;5.03;3.15;;;18.90;99.90;;;;;;6190594;23;20049;-62
2023/05/31 09:12:57;;;;;;;9.13;2.80;;;18.90;99.90;;;;;;6186529;23;20032;-62
2023/05/31 09:15:24;;;;;;;6.82;3.10;;;18.90;99.90;;;;;;6190528;23;20060;-62
2023/05/31 09:17:50;;;;;;;7.95;3.40;;;19.00;99.90;;;;;;6188509;23;20258;-62
2023/05/31 09:20:17;;;;;;;7.82;3.70;;;19.00;99.90;;;;;;6189169;23;20371;-63
2023/05/31 09:22:49;;;;;;;6.13;3.17;;;19.00;99.90;;;;;;6189425;23;20028;-62
2023/05/31 09:25:15;;;;;;;8.30;3.28;;;19.10;99.90;;;;;;6188548;23;20017;-62
2023/05/31 09:27:41;;;;;;;7.35;3.22;;;19.00;99.90;;;;;;6190908;23;20025;-62
2023/05/31 09:30:08;;;;;;;7.03;2.72;;;19.00;99.90;;;;;;6188388;23;20051;-62
2023/05/31 09:32:38;;;;;;;8.35;3.03;;;19.20;99.90;;;;;;6190539;23;20021;-62
2023/05/31 09:35:15;;;;;;;7.35;2.92;;;19.20;99.90;;;;;;6188265;23;20040;-63
2023/05/31 09:37:48;;;;;;;8.73;3.38;;;19.20;99.90;;;;;;6189764;23;20024;-62
2023/05/31 09:40:15;;;;;;;4.50;2.70;;;19.40;99.90;;;;;;6190818;23;20028;-62
2023/05/31 09:42:51;;;;;;;6.05;3.45;;;19.50;99.90;;;;;;6188295;23;20017;-63
2023/05/31 09:45:18;;;;;;;10.07;3.67;;;19.50;99.90;;;;;;6190585;23;20017;-65
2023/05/31 09:47:44;;;;;;;7.75;3.15;;;19.70;99.90;;;;;;6188857;23;20020;-63
2023/05/31 09:50:11;;;;;;;5.47;2.70;;;19.70;99.90;;;;;;6190685;23;20055;-62
2023/05/31 09:52:40;;;;;;;9.30;3.22;;;19.80;99.90;;;;;;6190088;23;20017;-63
2023/05/31 09:55:08;;;;;;;7.68;4.63;;;19.70;99.90;;;;;;6189725;23;20025;-65
2023/05/31 09:57:43;;;;;;;7.63;3.53;;;19.80;99.90;;;;;;6191833;23;20029;-63
2023/05/31 10:00:16;;;;;;;5.13;3.03;;;19.80;99.90;;;;;;6188526;23;20414;-63
2023/05/31 10:02:52;;;;;;;7.50;3.38;;;19.80;99.90;;;;;;6190213;23;20032;-63
2023/05/31 10:05:19;;;;;;;8.02;3.20;;;19.80;99.90;;;;;;6189141;23;20143;-64
2023/05/31 10:07:47;;;;;;;8.93;3.15;;;20.00;99.90;;;;;;6189585;23;20024;-63
2023/05/31 10:10:13;;;;;;;9.50;2.80;;;20.00;99.90;;;;;;6190296;23;20072;-63
2023/05/31 10:12:50;;;;;;;7.40;2.90;;;20.20;99.90;;;;;;6187946;23;20040;-70
2023/05/31 10:15:21;;;;;;;8.57;3.17;;;20.30;99.90;;;;;;6190428;23;20025;-64
2023/05/31 10:18:09;;;;;;;10.00;3.25;;;20.30;99.90;;;;;;6188403;23;20021;-63
2023/05/31 10:20:41;;;;;;;9.07;3.15;;;20.30;99.90;;;;;;6189260;23;20438;-64
2023/05/31 10:23:31;;;;;;;5.83;3.07;;;20.20;99.90;;;;;;6191242;23;20779;-63
2023/05/31 10:26:00;;;;;;;8.20;2.75;;;20.30;99.90;;;;;;6187993;23;20017;-62
2023/05/31 10:28:35;;;;;;;9.10;3.55;;;20.20;99.90;;;;;;6191573;23;20032;-63
2023/05/31 10:31:03;;;;;;;7.63;3.33;;;20.30;99.90;;;;;;6189292;23;20040;-63
2023/05/31 10:33:30;;;;;;;5.30;3.00;;;20.40;99.90;;;;;;6190517;23;20022;-63
2023/05/31 10:36:00;;;;;;;5.38;2.78;;;20.40;99.90;;;;;;6198937;23;20021;-63
2023/05/31 10:38:46;;;;;;;4.18;2.83;;;20.40;99.90;;;;;;6196730;23;20077;-63
2023/05/31 10:41:18;;;;;;;5.93;3.20;;;20.40;99.90;;;;;;6197768;23;20025;-63
2023/05/31 10:43:57;;;;;;;4.13;2.65;;;20.40;99.90;;;;;;6188785;23;20147;-63
2023/05/31 10:46:28;;;;;;;8.52;3.60;;;20.40;99.90;;;;;;6189081;23;20028;-64
2023/05/31 10:48:59;;;;;;;5.32;3.10;;;20.60;99.90;;;;;;6189718;23;20346;-63
2023/05/31 10:51:41;;;;;;;6.40;2.97;;;20.60;99.90;;;;;;6161160;23;20021;-63
2023/05/31 10:54:08;;;;;;;7.20;3.33;;;20.60;99.90;;;;;;6189666;23;20024;-64
2023/05/31 10:56:38;;;;;;;6.78;2.83;;;20.60;99.90;;;;;;6187833;23;20021;-63
2023/05/31 10:59:04;;;;;;;8.88;3.70;;;20.70;99.90;;;;;;6188624;23;20553;-73
2023/05/31 11:01:29;;;;;;;9.18;2.65;;;20.70;99.90;;;;;;6162232;23;20044;-63
2023/05/31 11:03:57;;;;;;;10.05;3.75;;;20.60;99.90;;;;;;6187111;23;20023;-63
2023/05/31 11:06:26;;;;;;;4.80;2.70;;;20.70;99.90;;;;;;6189797;23;20045;-63
2023/05/31 11:09:12;;;;;;;7.63;3.38;;;20.60;99.90;;;;;;6187120;23;20176;-63
2023/05/31 11:11:48;;;;;;;7.75;3.05;;;20.70;99.90;;;;;;6189648;23;20025;-63
2023/05/31 11:14:31;;;;;;;8.32;3.30;;;20.80;99.90;;;;;;6188610;23;20063;-63
2023/05/31 11:17:04;;;;;;;;;;;21.00;99.90;;;;;;6187056;23;20386;-64
2023/05/31 11:19:31;;;;;;;4.85;3.03;;;21.10;99.90;;;;;;6196787;23;19930;-64
2023/05/31 11:22:07;;;;;;;4.05;2.67;;;21.00;99.90;;;;;;6198755;23;20064;-62
2023/05/31 11:24:37;;;;;;;6.07;2.70;;;21.10;99.90;;;;;;6197346;23;20040;-63
2023/05/31 11:27:06;;;;;;;8.82;2.97;;;21.10;99.90;;;;;;6197240;23;20021;-64
2023/05/31 11:29:44;;;;;;;10.50;3.10;;;21.10;99.90;;;;;;6189283;23;20021;-64
2023/05/31 11:32:10;;;;;;;7.00;2.90;;;21.20;99.90;;;;;;6190477;23;20025;-64
2023/05/31 11:34:56;;;;;;;5.90;3.20;;;21.20;99.90;;;;;;6187082;23;20082;-63
2023/05/31 11:37:42;;;;;;;7.32;3.67;;;21.30;99.90;;;;;;6188505;23;20029;-64
2023/05/31 11:40:14;;;;;;;5.82;2.65;;;21.30;99.90;;;;;;6187569;23;20035;-63
2023/05/31 11:42:44;;;;;;;5.25;2.92;;;21.30;99.90;;;;;;6186577;23;20072;-63
2023/05/31 11:45:15;;;;;;;5.57;2.67;;;21.30;99.90;;;;;;6189092;23;20034;-63
2023/05/31 11:47:58;;;;;;;5.50;3.00;;;21.40;99.90;;;;;;6186855;23;20021;-63
2023/05/31 11:50:24;;;;;;;9.38;3.65;;;21.40;99.90;;;;;;6187894;23;20076;-64
2023/05/31 11:52:54;;;;;;;5.93;3.00;;;21.40;99.90;;;;;;6188171;23;20031;-63
2023/05/31 11:55:21;;;;;;;6.38;2.55;;;21.40;99.90;;;;;;6187428;23;20426;-63
2023/05/31 11:57:54;;;;;;;11.63;3.75;;;21.30;99.90;;;;;;6189213;23;20028;-63
2023/05/31 12:00:23;;;;;;;5.63;3.22;;;21.40;99.90;;;;;;6186598;23;20028;-63
2023/05/31 12:02:53;;;;;;;9.65;3.97;;;21.30;99.90;;;;;;6187869;23;20044;-63
2023/05/31 12:05:19;;;;;;;7.70;3.55;;;21.20;99.90;;;;;;6187200;23;20031;-64
2023/05/31 12:07:48;;;;;;;8.00;3.88;;;21.10;99.90;;;;;;6187300;23;20017;-63
2023/05/31 12:10:15;;;;;;;7.53;3.22;;;21.20;99.90;;;;;;6188570;23;20058;-63
2023/05/31 12:12:42;;;;;;;11.80;4.03;;;21.20;99.90;;;;;;6186696;23;20024;-65
2023/05/31 12:15:11;;;;;;;7.20;3.58;;;21.50;99.90;;;;;;6188769;23;20036;-63
2023/05/31 12:17:39;;;;;;;8.98;4.63;;;21.40;99.90;;;;;;6186575;23;20362;-64
2023/05/31 12:20:05;;;;;;;8.25;4.15;;;21.30;99.90;;;;;;6188811;23;20076;-63
2023/05/31 12:22:31;;;;;;;9.57;4.28;;;21.30;99.90;;;;;;6161741;23;20028;-63
2023/05/31 12:24:57;;;;;;;12.23;3.92;;;21.30;99.90;;;;;;6187068;23;20029;-62
2023/05/31 12:27:24;;;;;;;7.50;3.92;;;21.30;99.90;;;;;;6189179;23;20036;-63
2023/05/31 12:29:58;;;;;;;12.70;4.00;;;21.20;99.90;;;;;;6186404;23;20017;-63
2023/05/31 12:32:28;;;;;;;6.80;3.10;;;21.30;99.90;;;;;;6189253;23;20013;-63
2023/05/31 12:35:07;;;;;;;8.20;3.30;;;21.30;99.90;;;;;;6186970;23;20028;-63
2023/05/31 12:37:35;;;;;;;7.32;3.78;;;21.40;99.90;;;;;;6188528;23;20473;-64
2023/05/31 12:40:15;;;;;;;11.30;3.70;;;21.40;99.90;;;;;;6188714;23;20031;-63
2023/05/31 12:42:41;;;;;;;6.57;3.47;;;21.20;99.90;;;;;;6187003;23;20035;-63
2023/05/31 12:45:08;;;;;;;7.32;3.67;;;21.30;99.90;;;;;;6189252;23;20020;-63
2023/05/31 12:47:35;;;;;;;8.73;4.35;;;21.30;99.90;;;;;;6187069;23;20013;-64
2023/05/31 12:50:06;;;;;;;9.32;4.43;;;21.30;99.90;;;;;;6189139;23;20080;-63